sensor_id;sensor_type;location;lat;lon;timestamp;pressure;altitude;pressure_sealevel;temperature;humidity
8637;BME280;4356;49.068;8.658;2022-10-31T00:00:15;100336.56;;;21.97;47.03
8637;BME280;4356;49.068;8.658;2022-10-31T00:02:40;100343.47;;;22.00;47.10
8637;BME280;4356;49.068;8.658;2022-10-31T00:05:06;100345.97;;;22.01;47.23
8637;BME280;4356;49.068;8.658;2022-10-31T00:07:32;100351.44;;;22.01;47.12
8637;BME280;4356;49.068;8.658;2022-10-31T00:09:57;100350.63;;;22.01;47.06
8637;BME280;4356;49.068;8.658;2022-10-31T00:12:23;100343.47;;;22.00;47.08
8637;BME280;4356;49.068;8.658;2022-10-31T00:14:48;100342.06;;;21.97;47.02
8637;BME280;4356;49.068;8.658;2022-10-31T00:17:14;100352.16;;;21.97;47.13
8637;BME280;4356;49.068;8.658;2022-10-31T00:19:39;100339.56;;;21.96;47.05
8637;BME280;4356;49.068;8.658;2022-10-31T00:22:05;100339.31;;;21.97;47.01
8637;BME280;4356;49.068;8.658;2022-10-31T00:24:30;100337.03;;;21.94;46.93
8637;BME280;4356;49.068;8.658;2022-10-31T00:26:56;100335.63;;;21.92;46.89
8637;BME280;4356;49.068;8.658;2022-10-31T00:29:21;100343.59;;;21.93;46.83
8637;BME280;4356;49.068;8.658;2022-10-31T00:31:47;100331.19;;;21.91;46.76
8637;BME280;4356;49.068;8.658;2022-10-31T00:34:12;100342.97;;;21.91;46.78
8637;BME280;4356;49.068;8.658;2022-10-31T00:36:38;100343.81;;;21.92;46.77
8637;BME280;4356;49.068;8.658;2022-10-31T00:39:03;100349.06;;;21.93;46.83
8637;BME280;4356;49.068;8.658;2022-10-31T00:41:29;100349.28;;;21.92;46.69
8637;BME280;4356;49.068;8.658;2022-10-31T00:43:55;100330.00;;;21.87;46.94
8637;BME280;4356;49.068;8.658;2022-10-31T00:46:20;100347.59;;;21.91;46.88
8637;BME280;4356;49.068;8.658;2022-10-31T00:48:48;100346.78;;;21.90;46.67
8637;BME280;4356;49.068;8.658;2022-10-31T00:51:14;100352.28;;;21.90;46.71
8637;BME280;4356;49.068;8.658;2022-10-31T00:53:39;100341.16;;;21.85;46.79
8637;BME280;4356;49.068;8.658;2022-10-31T00:56:06;100339.28;;;21.86;46.62
8637;BME280;4356;49.068;8.658;2022-10-31T00:58:31;100334.03;;;21.84;46.72
8637;BME280;4356;49.068;8.658;2022-10-31T01:00:57;100342.25;;;21.84;46.80
8637;BME280;4356;49.068;8.658;2022-10-31T01:03:27;100339.28;;;21.86;46.60
8637;BME280;4356;49.068;8.658;2022-10-31T01:06:02;100335.09;;;21.83;46.45
8637;BME280;4356;49.068;8.658;2022-10-31T01:08:28;100340.78;;;21.82;46.92
8637;BME280;4356;49.068;8.658;2022-10-31T01:11:20;100332.81;;;21.80;46.77
8637;BME280;4356;49.068;8.658;2022-10-31T01:13:44;100332.59;;;21.82;46.88
8637;BME280;4356;49.068;8.658;2022-10-31T01:16:13;100338.31;;;21.80;46.59
8637;BME280;4356;49.068;8.658;2022-10-31T01:18:39;100335.56;;;21.80;46.59
8637;BME280;4356;49.068;8.658;2022-10-31T01:21:11;100340.41;;;21.78;46.47
8637;BME280;4356;49.068;8.658;2022-10-31T01:23:37;100328.47;;;21.73;46.78
8637;BME280;4356;49.068;8.658;2022-10-31T01:26:12;100338.38;;;21.74;46.84
8637;BME280;4356;49.068;8.658;2022-10-31T01:28:44;100343.38;;;21.77;46.80
8637;BME280;4356;49.068;8.658;2022-10-31T01:31:10;100346.09;;;21.77;46.54
8637;BME280;4356;49.068;8.658;2022-10-31T01:33:36;100337.16;;;21.70;46.61
8637;BME280;4356;49.068;8.658;2022-10-31T01:36:23;100346.81;;;21.72;46.65
8637;BME280;4356;49.068;8.658;2022-10-31T01:38:50;100345.13;;;21.71;46.74
8637;BME280;4356;49.068;8.658;2022-10-31T01:41:20;100353.34;;;21.71;46.54
8637;BME280;4356;49.068;8.658;2022-10-31T01:46:16;100350.38;;;21.73;46.53
8637;BME280;4356;49.068;8.658;2022-10-31T01:48:42;100346.41;;;21.69;46.52
8637;BME280;4356;49.068;8.658;2022-10-31T01:51:11;100351.09;;;21.68;46.47
8637;BME280;4356;49.068;8.658;2022-10-31T01:53:38;100347.03;;;21.71;46.63
8637;BME280;4356;49.068;8.658;2022-10-31T01:56:05;100345.59;;;21.68;46.55
8637;BME280;4356;49.068;8.658;2022-10-31T01:58:31;100342.88;;;21.68;46.66
8637;BME280;4356;49.068;8.658;2022-10-31T02:00:59;100327.13;;;21.64;46.52
8637;BME280;4356;49.068;8.658;2022-10-31T02:03:25;100346.66;;;21.67;46.63
8637;BME280;4356;49.068;8.658;2022-10-31T02:05:54;100340.38;;;21.67;46.47
8637;BME280;4356;49.068;8.658;2022-10-31T02:08:26;100338.69;;;21.66;46.49
8637;BME280;4356;49.068;8.658;2022-10-31T02:10:53;100340.81;;;21.64;46.63
8637;BME280;4356;49.068;8.658;2022-10-31T02:13:19;100347.97;;;21.65;46.46
8637;BME280;4356;49.068;8.658;2022-10-31T02:15:49;100339.41;;;21.61;46.40
8637;BME280;4356;49.068;8.658;2022-10-31T02:18:17;100336.88;;;21.60;46.60
8637;BME280;4356;49.068;8.658;2022-10-31T02:31:49;100343.41;;;21.59;46.50
8637;BME280;4356;49.068;8.658;2022-10-31T02:34:19;100340.06;;;21.57;46.83
8637;BME280;4356;49.068;8.658;2022-10-31T02:40:17;100339.22;;;21.56;46.44
8637;BME280;4356;49.068;8.658;2022-10-31T02:45:35;100333.88;;;21.49;46.84
8637;BME280;4356;49.068;8.658;2022-10-31T02:48:18;100336.38;;;21.51;46.52
8637;BME280;4356;49.068;8.658;2022-10-31T02:50:50;100329.47;;;21.48;46.58
8637;BME280;4356;49.068;8.658;2022-10-31T02:53:17;100328.63;;;21.48;46.86
8637;BME280;4356;49.068;8.658;2022-10-31T02:56:06;100331.97;;;21.50;46.42
8637;BME280;4356;49.068;8.658;2022-10-31T02:58:37;100328.63;;;21.48;46.77
8637;BME280;4356;49.068;8.658;2022-10-31T03:06:22;100324.69;;;21.44;46.63
8637;BME280;4356;49.068;8.658;2022-10-31T03:09:26;100329.69;;;21.47;46.57
8637;BME280;4356;49.068;8.658;2022-10-31T03:11:58;100337.31;;;21.45;46.64
8637;BME280;4356;49.068;8.658;2022-10-31T03:14:46;100339.44;;;21.43;46.54
8637;BME280;4356;49.068;8.658;2022-10-31T03:17:25;100335.63;;;21.44;46.55
8637;BME280;4356;49.068;8.658;2022-10-31T03:19:54;100342.38;;;21.41;46.72
8637;BME280;4356;49.068;8.658;2022-10-31T03:22:24;100336.72;;;21.43;46.63
8637;BME280;4356;49.068;8.658;2022-10-31T03:24:52;100331.06;;;21.38;46.73
8637;BME280;4356;49.068;8.658;2022-10-31T03:27:24;100336.91;;;21.41;46.46
8637;BME280;4356;49.068;8.658;2022-10-31T03:29:54;100335.50;;;21.39;46.55
8637;BME280;4356;49.068;8.658;2022-10-31T03:32:43;100341.81;;;21.39;46.69
8637;BME280;4356;49.068;8.658;2022-10-31T03:35:10;100332.38;;;21.35;46.67
8637;BME280;4356;49.068;8.658;2022-10-31T03:37:39;100338.91;;;21.34;46.22
8637;BME280;4356;49.068;8.658;2022-10-31T03:40:07;100340.34;;;21.37;46.51
8637;BME280;4356;49.068;8.658;2022-10-31T03:42:38;100340.13;;;21.38;46.29
8637;BME280;4356;49.068;8.658;2022-10-31T03:47:38;100337.84;;;21.35;46.54
8637;BME280;4356;49.068;8.658;2022-10-31T03:50:06;100336.78;;;21.36;46.65
8637;BME280;4356;49.068;8.658;2022-10-31T03:52:45;100333.44;;;21.34;46.34
8637;BME280;4356;49.068;8.658;2022-10-31T03:55:20;100328.81;;;21.35;46.48
8637;BME280;4356;49.068;8.658;2022-10-31T04:00:20;100326.06;;;21.35;46.35
8637;BME280;4356;49.068;8.658;2022-10-31T04:02:55;100321.88;;;21.32;46.13
8637;BME280;4356;49.068;8.658;2022-10-31T04:05:24;100318.34;;;21.32;46.57
8637;BME280;4356;49.068;8.658;2022-10-31T04:07:53;100312.75;;;21.27;46.50
8637;BME280;4356;49.068;8.658;2022-10-31T04:10:22;100325.47;;;21.33;46.32
8637;BME280;4356;49.068;8.658;2022-10-31T04:12:54;100323.81;;;21.32;46.55
8637;BME280;4356;49.068;8.658;2022-10-31T04:15:22;100324.84;;;21.31;46.59
8637;BME280;4356;49.068;8.658;2022-10-31T04:17:50;100313.78;;;21.26;46.52
8637;BME280;4356;49.068;8.658;2022-10-31T04:20:18;100322.59;;;21.28;46.48
8637;BME280;4356;49.068;8.658;2022-10-31T04:22:44;100311.91;;;21.26;46.49
8637;BME280;4356;49.068;8.658;2022-10-31T04:25:09;100310.44;;;21.24;46.51
8637;BME280;4356;49.068;8.658;2022-10-31T04:27:35;100316.28;;;21.27;46.28
8637;BME280;4356;49.068;8.658;2022-10-31T04:30:00;100314.03;;;21.24;46.50
8637;BME280;4356;49.068;8.658;2022-10-31T04:32:26;100318.22;;;21.27;46.44
8637;BME280;4356;49.068;8.658;2022-10-31T04:34:51;100312.94;;;21.25;46.33
8637;BME280;4356;49.068;8.658;2022-10-31T04:37:17;100310.22;;;21.25;46.38
8637;BME280;4356;49.068;8.658;2022-10-31T04:39:42;100311.53;;;21.23;46.37
8637;BME280;4356;49.068;8.658;2022-10-31T04:42:08;100309.84;;;21.22;46.47
8637;BME280;4356;49.068;8.658;2022-10-31T04:44:33;100304.84;;;21.19;46.31
8637;BME280;4356;49.068;8.658;2022-10-31T04:46:59;100310.06;;;21.20;46.56
8637;BME280;4356;49.068;8.658;2022-10-31T04:49:24;100310.69;;;21.22;46.48
8637;BME280;4356;49.068;8.658;2022-10-31T04:51:50;100308.41;;;21.19;46.58
8637;BME280;4356;49.068;8.658;2022-10-31T04:54:16;100304.84;;;21.19;46.67
8637;BME280;4356;49.068;8.658;2022-10-31T04:56:41;100308.03;;;21.16;46.32
8637;BME280;4356;49.068;8.658;2022-10-31T04:59:07;100302.56;;;21.16;46.27
8637;BME280;4356;49.068;8.658;2022-10-31T05:01:32;100305.06;;;21.17;46.14
8637;BME280;4356;49.068;8.658;2022-10-31T05:03:58;100294.56;;;21.14;46.40
8637;BME280;4356;49.068;8.658;2022-10-31T05:06:23;100305.88;;;21.18;46.22
8637;BME280;4356;49.068;8.658;2022-10-31T05:08:49;100306.13;;;21.16;46.22
8637;BME280;4356;49.068;8.658;2022-10-31T05:11:14;100304.47;;;21.15;46.33
8637;BME280;4356;49.068;8.658;2022-10-31T05:13:40;100299.47;;;21.12;46.42
8637;BME280;4356;49.068;8.658;2022-10-31T05:16:05;100308.25;;;21.14;46.30
8637;BME280;4356;49.068;8.658;2022-10-31T05:18:31;100292.78;;;21.08;46.15
8637;BME280;4356;49.068;8.658;2022-10-31T05:20:56;100304.09;;;21.12;46.20
8637;BME280;4356;49.068;8.658;2022-10-31T05:23:22;100297.31;;;21.14;46.32
8637;BME280;4356;49.068;8.658;2022-10-31T05:25:48;100293.16;;;21.12;46.31
8637;BME280;4356;49.068;8.658;2022-10-31T05:28:13;100290.44;;;21.12;46.17
8637;BME280;4356;49.068;8.658;2022-10-31T05:30:39;100286.84;;;21.11;46.49
8637;BME280;4356;49.068;8.658;2022-10-31T05:33:04;100288.13;;;21.09;46.24
8637;BME280;4356;49.068;8.658;2022-10-31T05:35:32;100289.59;;;21.11;46.29
8637;BME280;4356;49.068;8.658;2022-10-31T05:37:58;100286.47;;;21.08;46.19
8637;BME280;4356;49.068;8.658;2022-10-31T05:40:25;100286.25;;;21.09;46.28
8637;BME280;4356;49.068;8.658;2022-10-31T05:42:52;100287.56;;;21.07;46.24
8637;BME280;4356;49.068;8.658;2022-10-31T05:45:18;100285.88;;;21.06;46.38
8637;BME280;4356;49.068;8.658;2022-10-31T05:48:10;100282.91;;;21.07;45.87
8637;BME280;4356;49.068;8.658;2022-10-31T05:50:36;100273.13;;;21.00;46.38
8637;BME280;4356;49.068;8.658;2022-10-31T05:53:04;100273.72;;;21.02;46.27
8637;BME280;4356;49.068;8.658;2022-10-31T05:55:31;100276.25;;;21.03;46.32
8637;BME280;4356;49.068;8.658;2022-10-31T05:57:57;100276.44;;;21.02;46.47
8637;BME280;4356;49.068;8.658;2022-10-31T06:00:24;100279.78;;;21.04;46.46
8637;BME280;4356;49.068;8.658;2022-10-31T06:02:49;100274.81;;;21.01;46.54
8637;BME280;4356;49.068;8.658;2022-10-31T06:05:22;100283.59;;;21.03;46.57
8637;BME280;4356;49.068;8.658;2022-10-31T06:07:47;100276.69;;;21.00;46.56
8637;BME280;4356;49.068;8.658;2022-10-31T06:10:13;100272.06;;;21.01;46.43
8637;BME280;4356;49.068;8.658;2022-10-31T06:12:39;100276.25;;;21.03;46.61
8637;BME280;4356;49.068;8.658;2022-10-31T06:15:06;100278.75;;;21.05;46.31
8637;BME280;4356;49.068;8.658;2022-10-31T06:17:33;100282.53;;;21.04;46.31
8637;BME280;4356;49.068;8.658;2022-10-31T06:19:59;100278.03;;;21.09;46.31
8637;BME280;4356;49.068;8.658;2022-10-31T06:22:24;100278.50;;;21.06;46.04
8637;BME280;4356;49.068;8.658;2022-10-31T06:24:50;100284.34;;;21.10;46.17
8637;BME280;4356;49.068;8.658;2022-10-31T06:27:15;100283.06;;;21.12;46.13
8637;BME280;4356;49.068;8.658;2022-10-31T06:29:41;100280.91;;;21.14;46.19
8637;BME280;4356;49.068;8.658;2022-10-31T06:32:10;100277.38;;;21.14;46.48
8637;BME280;4356;49.068;8.658;2022-10-31T06:34:36;100278.78;;;21.16;46.51
8637;BME280;4356;49.068;8.658;2022-10-31T06:37:01;100275.69;;;21.13;46.32
8637;BME280;4356;49.068;8.658;2022-10-31T06:39:27;100286.75;;;21.18;46.34
8637;BME280;4356;49.068;8.658;2022-10-31T06:41:52;100285.72;;;21.19;46.37
8637;BME280;4356;49.068;8.658;2022-10-31T06:44:18;100280.47;;;21.17;46.20
8637;BME280;4356;49.068;8.658;2022-10-31T06:46:46;100280.72;;;21.16;46.16
8637;BME280;4356;49.068;8.658;2022-10-31T06:49:12;100289.66;;;21.23;46.33
8637;BME280;4356;49.068;8.658;2022-10-31T06:51:38;100286.31;;;21.21;46.64
8637;BME280;4356;49.068;8.658;2022-10-31T06:54:05;100293.19;;;21.23;46.52
8637;BME280;4356;49.068;8.658;2022-10-31T06:56:31;100278.34;;;21.19;46.46
8637;BME280;4356;49.068;8.658;2022-10-31T06:58:56;100288.34;;;21.25;46.59
8637;BME280;4356;49.068;8.658;2022-10-31T07:01:22;100276.44;;;21.20;46.79
8637;BME280;4356;49.068;8.658;2022-10-31T07:03:48;100273.69;;;21.20;46.83
8637;BME280;4356;49.068;8.658;2022-10-31T07:06:13;100296.09;;;21.28;46.93
8637;BME280;4356;49.068;8.658;2022-10-31T07:08:39;100289.31;;;21.31;46.98
8637;BME280;4356;49.068;8.658;2022-10-31T07:11:05;100299.81;;;21.34;46.98
8637;BME280;4356;49.068;8.658;2022-10-31T07:13:30;100295.41;;;21.33;47.14
8637;BME280;4356;49.068;8.658;2022-10-31T07:16:01;100298.50;;;21.36;47.35
8637;BME280;4356;49.068;8.658;2022-10-31T07:18:27;100282.19;;;21.30;47.36
8637;BME280;4356;49.068;8.658;2022-10-31T07:20:53;100287.94;;;21.40;47.23
8637;BME280;4356;49.068;8.658;2022-10-31T07:23:19;100296.97;;;21.40;47.33
8637;BME280;4356;49.068;8.658;2022-10-31T07:25:45;100302.22;;;21.42;47.21
8637;BME280;4356;49.068;8.658;2022-10-31T07:28:11;100306.63;;;21.43;47.00
8637;BME280;4356;49.068;8.658;2022-10-31T07:30:37;100296.97;;;21.40;47.15
8637;BME280;4356;49.068;8.658;2022-10-31T07:33:03;100301.75;;;21.45;46.95
8637;BME280;4356;49.068;8.658;2022-10-31T07:35:30;100294.38;;;21.45;47.09
8637;BME280;4356;49.068;8.658;2022-10-31T07:37:56;100298.78;;;21.46;46.97
8637;BME280;4356;49.068;8.658;2022-10-31T07:40:22;100301.06;;;21.49;47.18
8637;BME280;4356;49.068;8.658;2022-10-31T07:42:50;100301.66;;;21.52;47.44
8637;BME280;4356;49.068;8.658;2022-10-31T07:45:18;100303.56;;;21.51;47.33
8637;BME280;4356;49.068;8.658;2022-10-31T07:47:49;100307.72;;;21.54;47.28
8637;BME280;4356;49.068;8.658;2022-10-31T07:50:19;100308.59;;;21.54;47.70
8637;BME280;4356;49.068;8.658;2022-10-31T07:52:45;100298.31;;;21.49;47.67
8637;BME280;4356;49.068;8.658;2022-10-31T07:55:12;100308.59;;;21.54;47.87
8637;BME280;4356;49.068;8.658;2022-10-31T07:57:37;100299.91;;;21.57;47.80
8637;BME280;4356;49.068;8.658;2022-10-31T08:00:05;100299.66;;;21.59;48.04
8637;BME280;4356;49.068;8.658;2022-10-31T08:02:31;100307.19;;;21.63;47.96
8637;BME280;4356;49.068;8.658;2022-10-31T08:04:57;100307.19;;;21.63;48.05
8637;BME280;4356;49.068;8.658;2022-10-31T08:07:22;100292.75;;;21.56;47.99
8637;BME280;4356;49.068;8.658;2022-10-31T08:09:48;100302.66;;;21.69;48.05
8637;BME280;4356;49.068;8.658;2022-10-31T08:12:13;100305.38;;;21.69;48.00
8637;BME280;4356;49.068;8.658;2022-10-31T08:14:39;100306.59;;;21.73;48.09
8637;BME280;4356;49.068;8.658;2022-10-31T08:17:05;100291.13;;;21.67;48.02
8637;BME280;4356;49.068;8.658;2022-10-31T08:19:30;100292.69;;;21.74;48.18
8637;BME280;4356;49.068;8.658;2022-10-31T08:21:56;100294.97;;;21.77;48.04
8637;BME280;4356;49.068;8.658;2022-10-31T08:24:24;100291.31;;;21.83;48.00
8637;BME280;4356;49.068;8.658;2022-10-31T08:26:50;100284.19;;;21.82;48.24
8637;BME280;4356;49.068;8.658;2022-10-31T08:29:15;100289.78;;;21.87;48.14
8637;BME280;4356;49.068;8.658;2022-10-31T08:31:42;100284.31;;;21.87;48.01
8637;BME280;4356;49.068;8.658;2022-10-31T08:34:07;100285.03;;;21.94;48.28
8637;BME280;4356;49.068;8.658;2022-10-31T08:36:33;100285.63;;;21.96;48.11
8637;BME280;4356;49.068;8.658;2022-10-31T08:38:59;100288.50;;;22.01;48.06
8637;BME280;4356;49.068;8.658;2022-10-31T08:41:25;100278.28;;;22.08;48.21
8637;BME280;4356;49.068;8.658;2022-10-31T08:43:50;100280.66;;;22.16;47.99
8637;BME280;4356;49.068;8.658;2022-10-31T08:46:16;100279.13;;;22.20;47.87
8637;BME280;4356;49.068;8.658;2022-10-31T08:48:42;100281.25;;;22.18;47.95
8637;BME280;4356;49.068;8.658;2022-10-31T08:51:09;100268.78;;;22.22;48.15
8637;BME280;4356;49.068;8.658;2022-10-31T08:53:34;100267.69;;;22.23;48.22
8637;BME280;4356;49.068;8.658;2022-10-31T08:56:00;100255.94;;;22.23;48.10
8637;BME280;4356;49.068;8.658;2022-10-31T08:58:26;100267.25;;;22.26;48.52
8637;BME280;4356;49.068;8.658;2022-10-31T09:00:53;100268.41;;;22.30;48.47
8637;BME280;4356;49.068;8.658;2022-10-31T09:03:25;100266.25;;;22.32;48.47
8637;BME280;4356;49.068;8.658;2022-10-31T09:05:56;100264.97;;;22.35;48.87
8637;BME280;4356;49.068;8.658;2022-10-31T09:08:22;100261.97;;;22.36;48.65
8637;BME280;4356;49.068;8.658;2022-10-31T09:10:48;100252.94;;;22.36;48.76
8637;BME280;4356;49.068;8.658;2022-10-31T09:13:15;100261.75;;;22.38;49.07
8637;BME280;4356;49.068;8.658;2022-10-31T09:15:43;100258.16;;;22.37;49.11
8637;BME280;4356;49.068;8.658;2022-10-31T09:18:10;100257.69;;;22.40;49.00
8637;BME280;4356;49.068;8.658;2022-10-31T09:20:37;100260.56;;;22.45;48.97
8637;BME280;4356;49.068;8.658;2022-10-31T09:23:10;100252.34;;;22.45;49.35
8637;BME280;4356;49.068;8.658;2022-10-31T09:25:36;100252.69;;;22.49;48.93
8637;BME280;4356;49.068;8.658;2022-10-31T09:28:04;100250.28;;;22.52;49.21
8637;BME280;4356;49.068;8.658;2022-10-31T09:30:32;100260.81;;;22.56;49.16
8637;BME280;4356;49.068;8.658;2022-10-31T09:33:00;100249.63;;;22.57;49.18
8637;BME280;4356;49.068;8.658;2022-10-31T09:35:26;100254.25;;;22.57;49.04
8637;BME280;4356;49.068;8.658;2022-10-31T09:38:04;100256.50;;;22.60;49.48
8637;BME280;4356;49.068;8.658;2022-10-31T09:40:39;100262.59;;;22.62;49.35
8637;BME280;4356;49.068;8.658;2022-10-31T09:45:41;100262.13;;;22.65;49.43
8637;BME280;4356;49.068;8.658;2022-10-31T09:50:51;100252.81;;;22.66;49.33
8637;BME280;4356;49.068;8.658;2022-10-31T09:56:15;100237.81;;;22.68;48.89
8637;BME280;4356;49.068;8.658;2022-10-31T09:58:45;100241.13;;;22.70;48.73
8637;BME280;4356;49.068;8.658;2022-10-31T10:01:42;100239.91;;;22.78;48.88
8637;BME280;4356;49.068;8.658;2022-10-31T10:04:20;100237.53;;;22.81;49.01
8637;BME280;4356;49.068;8.658;2022-10-31T10:06:53;100240.28;;;22.81;48.24
8637;BME280;4356;49.068;8.658;2022-10-31T10:09:25;100224.06;;;22.80;48.80
8637;BME280;4356;49.068;8.658;2022-10-31T10:17:41;100235.38;;;22.95;48.62
8637;BME280;4356;49.068;8.658;2022-10-31T10:25:38;100224.75;;;22.98;48.47
8637;BME280;4356;49.068;8.658;2022-10-31T10:28:30;100217.94;;;23.01;48.58
8637;BME280;4356;49.068;8.658;2022-10-31T10:31:34;100214.13;;;23.02;48.46
8637;BME280;4356;49.068;8.658;2022-10-31T10:34:19;100204.25;;;23.01;48.21
8637;BME280;4356;49.068;8.658;2022-10-31T10:36:55;100212.22;;;23.02;48.25
8637;BME280;4356;49.068;8.658;2022-10-31T10:39:31;100206.63;;;22.97;47.98
8637;BME280;4356;49.068;8.658;2022-10-31T10:42:00;100210.28;;;23.03;47.84
8637;BME280;4356;49.068;8.658;2022-10-31T10:44:47;100196.84;;;23.01;48.09
8637;BME280;4356;49.068;8.658;2022-10-31T10:47:43;100199.56;;;23.01;47.84
8637;BME280;4356;49.068;8.658;2022-10-31T10:50:34;100204.00;;;23.02;47.90
8637;BME280;4356;49.068;8.658;2022-10-31T10:55:43;100195.53;;;23.04;47.40
8637;BME280;4356;49.068;8.658;2022-10-31T10:58:10;100189.78;;;23.05;46.89
8637;BME280;4356;49.068;8.658;2022-10-31T11:00:42;100177.91;;;23.00;46.52
8637;BME280;4356;49.068;8.658;2022-10-31T11:03:11;100178.56;;;23.07;46.20
8637;BME280;4356;49.068;8.658;2022-10-31T11:05:51;100177.50;;;23.08;46.18
8637;BME280;4356;49.068;8.658;2022-10-31T11:08:35;100175.59;;;23.08;46.17
8637;BME280;4356;49.068;8.658;2022-10-31T11:13:48;100159.97;;;23.09;46.02
8637;BME280;4356;49.068;8.658;2022-10-31T11:16:27;100160.56;;;23.11;46.29
8637;BME280;4356;49.068;8.658;2022-10-31T11:19:05;100152.59;;;23.09;46.23
8637;BME280;4356;49.068;8.658;2022-10-31T11:21:32;100146.00;;;23.10;46.05
8637;BME280;4356;49.068;8.658;2022-10-31T11:26:34;100139.34;;;23.06;46.19
8637;BME280;4356;49.068;8.658;2022-10-31T11:29:03;100145.22;;;23.10;46.19
8637;BME280;4356;49.068;8.658;2022-10-31T11:31:29;100142.81;;;23.13;46.09
8637;BME280;4356;49.068;8.658;2022-10-31T11:34:11;100147.78;;;23.16;46.03
8637;BME280;4356;49.068;8.658;2022-10-31T11:36:39;100132.44;;;23.15;46.10
8637;BME280;4356;49.068;8.658;2022-10-31T11:39:17;100143.72;;;23.19;45.99
8637;BME280;4356;49.068;8.658;2022-10-31T11:41:44;100137.41;;;23.18;46.09
8637;BME280;4356;49.068;8.658;2022-10-31T11:44:26;100143.22;;;23.22;46.13
8637;BME280;4356;49.068;8.658;2022-10-31T11:46:58;100117.53;;;23.11;46.13
8637;BME280;4356;49.068;8.658;2022-10-31T11:49:40;100119.28;;;23.17;46.05
8637;BME280;4356;49.068;8.658;2022-10-31T11:54:47;100119.13;;;23.24;46.37
8637;BME280;4356;49.068;8.658;2022-10-31T11:57:28;100111.63;;;23.19;46.25
8637;BME280;4356;49.068;8.658;2022-10-31T11:59:57;100110.91;;;23.24;46.23
8637;BME280;4356;49.068;8.658;2022-10-31T12:02:23;100107.00;;;23.20;46.22
8637;BME280;4356;49.068;8.658;2022-10-31T12:04:56;100113.06;;;23.22;46.20
8637;BME280;4356;49.068;8.658;2022-10-31T12:07:24;100111.50;;;23.26;46.21
8637;BME280;4356;49.068;8.658;2022-10-31T12:09:49;100109.00;;;23.24;45.96
8637;BME280;4356;49.068;8.658;2022-10-31T12:12:29;100118.16;;;23.30;46.50
8637;BME280;4356;49.068;8.658;2022-10-31T12:15:15;100112.09;;;23.28;46.52
8637;BME280;4356;49.068;8.658;2022-10-31T12:18:06;100109.72;;;23.31;46.48
8637;BME280;4356;49.068;8.658;2022-10-31T12:21:08;100108.88;;;23.31;46.56
8637;BME280;4356;49.068;8.658;2022-10-31T12:23:47;100108.03;;;23.30;46.32
8637;BME280;4356;49.068;8.658;2022-10-31T12:26:34;100108.03;;;23.30;46.36
8637;BME280;4356;49.068;8.658;2022-10-31T12:35:02;100080.34;;;23.32;46.16
8637;BME280;4356;49.068;8.658;2022-10-31T12:37:49;100083.69;;;23.34;46.20
8637;BME280;4356;49.068;8.658;2022-10-31T12:45:53;100048.88;;;23.34;46.08
8637;BME280;4356;49.068;8.658;2022-10-31T12:54:25;100037.63;;;23.36;46.25
8637;BME280;4356;49.068;8.658;2022-10-31T13:00:00;100021.69;;;23.33;46.55
8637;BME280;4356;49.068;8.658;2022-10-31T13:02:48;100021.09;;;23.31;46.70
8637;BME280;4356;49.068;8.658;2022-10-31T13:05:36;100012.03;;;23.30;46.53
8637;BME280;4356;49.068;8.658;2022-10-31T13:13:23;100001.41;;;23.34;47.08
8637;BME280;4356;49.068;8.658;2022-10-31T13:16:15;100004.97;;;23.34;47.24
8637;BME280;4356;49.068;8.658;2022-10-31T13:21:19;99991.78;;;23.31;47.30
8637;BME280;4356;49.068;8.658;2022-10-31T13:23:49;99994.09;;;23.39;47.34
8637;BME280;4356;49.068;8.658;2022-10-31T13:26:26;99988.59;;;23.39;47.42
8637;BME280;4356;49.068;8.658;2022-10-31T13:29:11;99993.59;;;23.42;47.31
8637;BME280;4356;49.068;8.658;2022-10-31T13:31:41;100001.56;;;23.44;47.01
8637;BME280;4356;49.068;8.658;2022-10-31T13:34:30;100010.38;;;23.46;47.14
8637;BME280;4356;49.068;8.658;2022-10-31T13:40:13;100009.34;;;23.52;47.14
8637;BME280;4356;49.068;8.658;2022-10-31T13:45:22;100001.97;;;23.53;47.47
8637;BME280;4356;49.068;8.658;2022-10-31T13:47:57;99997.63;;;23.57;47.34
8637;BME280;4356;49.068;8.658;2022-10-31T13:50:26;99985.56;;;23.58;47.32
8637;BME280;4356;49.068;8.658;2022-10-31T13:53:13;99984.50;;;23.59;47.18
8637;BME280;4356;49.068;8.658;2022-10-31T13:55:45;99993.31;;;23.61;47.14
8637;BME280;4356;49.068;8.658;2022-10-31T13:58:28;99991.97;;;23.63;47.14
8637;BME280;4356;49.068;8.658;2022-10-31T14:03:37;99970.00;;;23.63;47.02
8637;BME280;4356;49.068;8.658;2022-10-31T14:06:05;99965.94;;;23.66;46.95
8637;BME280;4356;49.068;8.658;2022-10-31T14:08:34;99957.72;;;23.66;46.89
8637;BME280;4356;49.068;8.658;2022-10-31T14:11:00;99953.03;;;23.66;46.99
8637;BME280;4356;49.068;8.658;2022-10-31T14:13:36;99948.13;;;23.68;47.07
8637;BME280;4356;49.068;8.658;2022-10-31T14:16:06;99951.69;;;23.69;47.21
8637;BME280;4356;49.068;8.658;2022-10-31T14:18:46;99940.41;;;23.65;46.98
8637;BME280;4356;49.068;8.658;2022-10-31T14:23:54;99948.44;;;23.72;47.12
8637;BME280;4356;49.068;8.658;2022-10-31T14:28:52;99942.13;;;23.71;47.30
8637;BME280;4356;49.068;8.658;2022-10-31T14:31:37;99946.53;;;23.72;47.63
8637;BME280;4356;49.068;8.658;2022-10-31T14:36:56;99953.13;;;23.71;47.61
8637;BME280;4356;49.068;8.658;2022-10-31T14:39:31;99956.34;;;23.68;47.70
8637;BME280;4356;49.068;8.658;2022-10-31T14:45:10;99949.22;;;23.67;47.67
8637;BME280;4356;49.068;8.658;2022-10-31T14:52:50;99953.88;;;23.67;47.94
8637;BME280;4356;49.068;8.658;2022-10-31T14:55:18;99939.56;;;23.65;48.09
8637;BME280;4356;49.068;8.658;2022-10-31T14:57:55;99938.75;;;23.64;48.04
8637;BME280;4356;49.068;8.658;2022-10-31T15:00:23;99933.81;;;23.66;47.94
8637;BME280;4356;49.068;8.658;2022-10-31T15:03:08;99923.81;;;23.55;47.88
8637;BME280;4356;49.068;8.658;2022-10-31T15:05:42;99948.91;;;23.64;48.05
8637;BME280;4356;49.068;8.658;2022-10-31T15:08:48;99949.75;;;23.64;48.20
8637;BME280;4356;49.068;8.658;2022-10-31T15:11:23;99955.22;;;23.64;47.91
8637;BME280;4356;49.068;8.658;2022-10-31T15:13:57;99956.28;;;23.63;47.94
8637;BME280;4356;49.068;8.658;2022-10-31T15:16:33;99951.63;;;23.64;47.92
8637;BME280;4356;49.068;8.658;2022-10-31T15:19:09;99934.28;;;23.58;47.96
8637;BME280;4356;49.068;8.658;2022-10-31T15:21:42;99927.47;;;23.61;47.56